sensor_id;sensor_type;location;lat;lon;timestamp;P1;durP1;ratioP1;P2;durP2;ratioP2
39918;SDS011;25589;51.552;13.424;2023-06-10T00:01:40;7.53;;;4.22;;
39918;SDS011;25589;51.552;13.424;2023-06-10T00:04:06;6.80;;;4.00;;
39918;SDS011;25589;51.552;13.424;2023-06-10T00:06:32;12.00;;;4.00;;
39918;SDS011;25589;51.552;13.424;2023-06-10T00:09:01;5.28;;;3.72;;
39918;SDS011;25589;51.552;13.424;2023-06-10T00:11:30;5.13;;;3.90;;
39918;SDS011;25589;51.552;13.424;2023-06-10T00:13:57;5.53;;;4.00;;
39918;SDS011;25589;51.552;13.424;2023-06-10T00:16:22;6.50;;;3.88;;
39918;SDS011;25589;51.552;13.424;2023-06-10T00:18:49;8.90;;;4.03;;
39918;SDS011;25589;51.552;13.424;2023-06-10T00:21:16;7.47;;;4.07;;
39918;SDS011;25589;51.552;13.424;2023-06-10T00:23:42;8.52;;;4.32;;
39918;SDS011;25589;51.552;13.424;2023-06-10T00:26:08;6.68;;;4.35;;
39918;SDS011;25589;51.552;13.424;2023-06-10T00:28:34;9.07;;;4.13;;
39918;SDS011;25589;51.552;13.424;2023-06-10T00:31:00;7.13;;;4.40;;
39918;SDS011;25589;51.552;13.424;2023-06-10T00:33:25;10.77;;;4.28;;
39918;SDS011;25589;51.552;13.424;2023-06-10T00:35:51;7.97;;;4.13;;
39918;SDS011;25589;51.552;13.424;2023-06-10T00:38:16;9.20;;;4.35;;
39918;SDS011;25589;51.552;13.424;2023-06-10T00:40:42;7.15;;;4.30;;
39918;SDS011;25589;51.552;13.424;2023-06-10T00:43:08;5.95;;;4.07;;
39918;SDS011;25589;51.552;13.424;2023-06-10T00:45:34;5.90;;;3.97;;
39918;SDS011;25589;51.552;13.424;2023-06-10T00:48:00;7.43;;;4.47;;
39918;SDS011;25589;51.552;13.424;2023-06-10T00:50:26;6.75;;;4.50;;
39918;SDS011;25589;51.552;13.424;2023-06-10T00:52:53;8.52;;;4.60;;
39918;SDS011;25589;51.552;13.424;2023-06-10T00:55:19;10.20;;;5.13;;
39918;SDS011;25589;51.552;13.424;2023-06-10T00:57:45;8.05;;;4.43;;
39918;SDS011;25589;51.552;13.424;2023-06-10T01:00:13;8.38;;;4.30;;
39918;SDS011;25589;51.552;13.424;2023-06-10T01:02:40;8.75;;;4.47;;
39918;SDS011;25589;51.552;13.424;2023-06-10T01:05:06;9.98;;;5.13;;
39918;SDS011;25589;51.552;13.424;2023-06-10T01:07:36;11.85;;;4.72;;
39918;SDS011;25589;51.552;13.424;2023-06-10T01:10:10;11.45;;;4.78;;
39918;SDS011;25589;51.552;13.424;2023-06-10T01:12:43;8.55;;;4.43;;
39918;SDS011;25589;51.552;13.424;2023-06-10T01:15:29;9.38;;;4.97;;
39918;SDS011;25589;51.552;13.424;2023-06-10T01:17:59;7.72;;;4.55;;
39918;SDS011;25589;51.552;13.424;2023-06-10T01:20:29;8.82;;;4.60;;
39918;SDS011;25589;51.552;13.424;2023-06-10T01:23:00;6.40;;;4.85;;
39918;SDS011;25589;51.552;13.424;2023-06-10T01:25:28;7.47;;;4.72;;
39918;SDS011;25589;51.552;13.424;2023-06-10T01:28:11;8.90;;;4.85;;
39918;SDS011;25589;51.552;13.424;2023-06-10T01:30:48;13.20;;;5.15;;
39918;SDS011;25589;51.552;13.424;2023-06-10T01:33:21;8.27;;;4.90;;
39918;SDS011;25589;51.552;13.424;2023-06-10T01:35:54;8.95;;;4.35;;
39918;SDS011;25589;51.552;13.424;2023-06-10T01:38:22;5.93;;;4.40;;
39918;SDS011;25589;51.552;13.424;2023-06-10T01:40:51;7.15;;;5.30;;
39918;SDS011;25589;51.552;13.424;2023-06-10T01:43:20;7.88;;;4.70;;
39918;SDS011;25589;51.552;13.424;2023-06-10T01:45:46;7.13;;;4.90;;
39918;SDS011;25589;51.552;13.424;2023-06-10T01:48:11;8.52;;;5.25;;
39918;SDS011;25589;51.552;13.424;2023-06-10T01:50:37;9.75;;;5.20;;
39918;SDS011;25589;51.552;13.424;2023-06-10T01:53:03;7.63;;;4.80;;
39918;SDS011;25589;51.552;13.424;2023-06-10T01:55:30;7.15;;;4.57;;
39918;SDS011;25589;51.552;13.424;2023-06-10T01:57:56;7.55;;;5.15;;
39918;SDS011;25589;51.552;13.424;2023-06-10T02:00:22;12.40;;;4.97;;
39918;SDS011;25589;51.552;13.424;2023-06-10T02:02:48;8.07;;;4.90;;
39918;SDS011;25589;51.552;13.424;2023-06-10T02:05:14;8.70;;;4.75;;
39918;SDS011;25589;51.552;13.424;2023-06-10T02:07:41;13.85;;;5.97;;
39918;SDS011;25589;51.552;13.424;2023-06-10T02:10:07;12.90;;;5.10;;
39918;SDS011;25589;51.552;13.424;2023-06-10T02:12:32;8.10;;;5.63;;
39918;SDS011;25589;51.552;13.424;2023-06-10T02:14:58;8.60;;;5.43;;
39918;SDS011;25589;51.552;13.424;2023-06-10T02:17:24;7.45;;;5.32;;
39918;SDS011;25589;51.552;13.424;2023-06-10T02:19:50;10.02;;;5.10;;
39918;SDS011;25589;51.552;13.424;2023-06-10T02:22:20;8.70;;;5.00;;
39918;SDS011;25589;51.552;13.424;2023-06-10T02:24:47;8.27;;;4.90;;
39918;SDS011;25589;51.552;13.424;2023-06-10T02:27:12;6.82;;;4.90;;
39918;SDS011;25589;51.552;13.424;2023-06-10T02:29:38;9.65;;;5.75;;
39918;SDS011;25589;51.552;13.424;2023-06-10T02:32:04;13.80;;;5.30;;
39918;SDS011;25589;51.552;13.424;2023-06-10T02:34:30;12.25;;;5.82;;
39918;SDS011;25589;51.552;13.424;2023-06-10T02:36:57;11.23;;;5.28;;
39918;SDS011;25589;51.552;13.424;2023-06-10T02:39:23;7.25;;;5.30;;
39918;SDS011;25589;51.552;13.424;2023-06-10T02:41:49;8.65;;;5.15;;
39918;SDS011;25589;51.552;13.424;2023-06-10T02:44:16;8.52;;;5.47;;
39918;SDS011;25589;51.552;13.424;2023-06-10T02:46:44;11.63;;;5.38;;
39918;SDS011;25589;51.552;13.424;2023-06-10T02:49:11;9.20;;;5.57;;
39918;SDS011;25589;51.552;13.424;2023-06-10T02:51:36;9.18;;;5.20;;
39918;SDS011;25589;51.552;13.424;2023-06-10T02:54:03;7.30;;;5.45;;
39918;SDS011;25589;51.552;13.424;2023-06-10T02:56:29;8.18;;;5.25;;
39918;SDS011;25589;51.552;13.424;2023-06-10T02:58:58;11.85;;;6.20;;
39918;SDS011;25589;51.552;13.424;2023-06-10T03:01:26;8.88;;;4.97;;
39918;SDS011;25589;51.552;13.424;2023-06-10T03:03:58;8.85;;;5.35;;
39918;SDS011;25589;51.552;13.424;2023-06-10T03:06:24;8.45;;;6.05;;
39918;SDS011;25589;51.552;13.424;2023-06-10T03:08:51;8.43;;;5.13;;
39918;SDS011;25589;51.552;13.424;2023-06-10T03:11:18;10.52;;;5.70;;
39918;SDS011;25589;51.552;13.424;2023-06-10T03:13:45;9.63;;;6.15;;
39918;SDS011;25589;51.552;13.424;2023-06-10T03:16:14;8.75;;;5.72;;
39918;SDS011;25589;51.552;13.424;2023-06-10T03:18:40;11.43;;;6.00;;
39918;SDS011;25589;51.552;13.424;2023-06-10T03:21:06;9.93;;;5.80;;
39918;SDS011;25589;51.552;13.424;2023-06-10T03:23:34;9.30;;;5.47;;
39918;SDS011;25589;51.552;13.424;2023-06-10T03:26:00;10.35;;;5.70;;
39918;SDS011;25589;51.552;13.424;2023-06-10T03:28:28;10.20;;;6.15;;
39918;SDS011;25589;51.552;13.424;2023-06-10T03:30:55;10.35;;;5.53;;
39918;SDS011;25589;51.552;13.424;2023-06-10T03:33:23;9.90;;;6.38;;
39918;SDS011;25589;51.552;13.424;2023-06-10T03:35:49;7.88;;;5.82;;
39918;SDS011;25589;51.552;13.424;2023-06-10T03:38:16;8.13;;;5.38;;
39918;SDS011;25589;51.552;13.424;2023-06-10T03:40:42;12.05;;;6.45;;
39918;SDS011;25589;51.552;13.424;2023-06-10T03:43:08;9.30;;;6.28;;
39918;SDS011;25589;51.552;13.424;2023-06-10T03:45:34;8.93;;;6.50;;
39918;SDS011;25589;51.552;13.424;2023-06-10T03:48:01;11.45;;;6.57;;
39918;SDS011;25589;51.552;13.424;2023-06-10T03:50:36;10.00;;;6.18;;
39918;SDS011;25589;51.552;13.424;2023-06-10T03:53:02;13.40;;;5.95;;
39918;SDS011;25589;51.552;13.424;2023-06-10T03:55:28;8.40;;;6.38;;
39918;SDS011;25589;51.552;13.424;2023-06-10T03:57:56;13.02;;;6.30;;
39918;SDS011;25589;51.552;13.424;2023-06-10T04:00:21;8.98;;;6.10;;
39918;SDS011;25589;51.552;13.424;2023-06-10T04:02:47;8.85;;;6.20;;
39918;SDS011;25589;51.552;13.424;2023-06-10T04:05:25;11.80;;;5.97;;
39918;SDS011;25589;51.552;13.424;2023-06-10T04:07:51;9.20;;;6.10;;
39918;SDS011;25589;51.552;13.424;2023-06-10T04:10:17;8.95;;;5.90;;
39918;SDS011;25589;51.552;13.424;2023-06-10T04:12:43;10.70;;;6.32;;
39918;SDS011;25589;51.552;13.424;2023-06-10T04:15:10;11.65;;;6.32;;
39918;SDS011;25589;51.552;13.424;2023-06-10T04:17:36;12.73;;;6.13;;
39918;SDS011;25589;51.552;13.424;2023-06-10T04:20:02;11.90;;;6.57;;
39918;SDS011;25589;51.552;13.424;2023-06-10T04:22:31;12.50;;;6.30;;
39918;SDS011;25589;51.552;13.424;2023-06-10T04:24:57;9.50;;;6.13;;
39918;SDS011;25589;51.552;13.424;2023-06-10T04:27:24;12.70;;;7.50;;
39918;SDS011;25589;51.552;13.424;2023-06-10T04:29:50;10.38;;;6.82;;
39918;SDS011;25589;51.552;13.424;2023-06-10T04:32:16;11.20;;;6.78;;
39918;SDS011;25589;51.552;13.424;2023-06-10T04:34:42;11.23;;;7.07;;
39918;SDS011;25589;51.552;13.424;2023-06-10T04:37:07;12.23;;;6.63;;
39918;SDS011;25589;51.552;13.424;2023-06-10T04:39:33;9.98;;;6.93;;
39918;SDS011;25589;51.552;13.424;2023-06-10T04:42:00;11.68;;;6.60;;
39918;SDS011;25589;51.552;13.424;2023-06-10T04:44:27;10.73;;;7.22;;
39918;SDS011;25589;51.552;13.424;2023-06-10T04:46:53;12.10;;;7.40;;
39918;SDS011;25589;51.552;13.424;2023-06-10T04:49:20;11.98;;;6.90;;
39918;SDS011;25589;51.552;13.424;2023-06-10T04:51:45;11.27;;;6.63;;
39918;SDS011;25589;51.552;13.424;2023-06-10T04:54:11;8.38;;;6.68;;
39918;SDS011;25589;51.552;13.424;2023-06-10T04:56:37;11.80;;;7.13;;
39918;SDS011;25589;51.552;13.424;2023-06-10T04:59:02;11.00;;;6.65;;
39918;SDS011;25589;51.552;13.424;2023-06-10T05:01:28;10.73;;;7.72;;
39918;SDS011;25589;51.552;13.424;2023-06-10T05:03:53;10.32;;;6.78;;
39918;SDS011;25589;51.552;13.424;2023-06-10T05:06:19;13.50;;;6.63;;
39918;SDS011;25589;51.552;13.424;2023-06-10T05:08:44;14.07;;;7.25;;
39918;SDS011;25589;51.552;13.424;2023-06-10T05:11:10;11.98;;;7.15;;
39918;SDS011;25589;51.552;13.424;2023-06-10T05:13:35;16.23;;;7.28;;
39918;SDS011;25589;51.552;13.424;2023-06-10T05:16:01;11.20;;;7.30;;
39918;SDS011;25589;51.552;13.424;2023-06-10T05:18:27;12.70;;;7.80;;
39918;SDS011;25589;51.552;13.424;2023-06-10T05:20:52;10.10;;;6.90;;
39918;SDS011;25589;51.552;13.424;2023-06-10T05:23:19;12.35;;;7.38;;
39918;SDS011;25589;51.552;13.424;2023-06-10T05:25:44;13.73;;;7.35;;
39918;SDS011;25589;51.552;13.424;2023-06-10T05:28:10;11.75;;;7.80;;
39918;SDS011;25589;51.552;13.424;2023-06-10T05:30:36;15.07;;;7.80;;
39918;SDS011;25589;51.552;13.424;2023-06-10T05:33:02;12.10;;;7.20;;
39918;SDS011;25589;51.552;13.424;2023-06-10T05:35:29;10.98;;;7.25;;
39918;SDS011;25589;51.552;13.424;2023-06-10T05:37:54;11.77;;;8.13;;
39918;SDS011;25589;51.552;13.424;2023-06-10T05:40:20;10.32;;;7.95;;
39918;SDS011;25589;51.552;13.424;2023-06-10T05:42:45;14.05;;;8.52;;
39918;SDS011;25589;51.552;13.424;2023-06-10T05:45:11;11.07;;;8.00;;
39918;SDS011;25589;51.552;13.424;2023-06-10T05:47:37;12.52;;;8.10;;
39918;SDS011;25589;51.552;13.424;2023-06-10T05:50:02;10.07;;;7.85;;
39918;SDS011;25589;51.552;13.424;2023-06-10T05:52:32;11.95;;;8.43;;
39918;SDS011;25589;51.552;13.424;2023-06-10T05:54:58;12.98;;;8.70;;
39918;SDS011;25589;51.552;13.424;2023-06-10T05:57:24;14.70;;;8.85;;
39918;SDS011;25589;51.552;13.424;2023-06-10T05:59:51;15.43;;;8.63;;
39918;SDS011;25589;51.552;13.424;2023-06-10T06:02:16;13.10;;;9.23;;
39918;SDS011;25589;51.552;13.424;2023-06-10T06:04:42;13.32;;;8.30;;
39918;SDS011;25589;51.552;13.424;2023-06-10T06:07:08;12.90;;;8.93;;
39918;SDS011;25589;51.552;13.424;2023-06-10T06:09:33;12.73;;;8.80;;
39918;SDS011;25589;51.552;13.424;2023-06-10T06:11:59;10.15;;;8.07;;
39918;SDS011;25589;51.552;13.424;2023-06-10T06:14:25;11.02;;;8.00;;
39918;SDS011;25589;51.552;13.424;2023-06-10T06:16:50;15.48;;;8.73;;
39918;SDS011;25589;51.552;13.424;2023-06-10T06:19:16;13.45;;;8.88;;
39918;SDS011;25589;51.552;13.424;2023-06-10T06:21:41;12.15;;;9.38;;
39918;SDS011;25589;51.552;13.424;2023-06-10T06:24:07;11.20;;;8.68;;
39918;SDS011;25589;51.552;13.424;2023-06-10T06:26:32;10.05;;;8.68;;
39918;SDS011;25589;51.552;13.424;2023-06-10T06:28:58;12.93;;;8.98;;
39918;SDS011;25589;51.552;13.424;2023-06-10T06:31:23;13.82;;;9.07;;
39918;SDS011;25589;51.552;13.424;2023-06-10T06:33:49;12.70;;;9.15;;
39918;SDS011;25589;51.552;13.424;2023-06-10T06:36:14;12.40;;;8.70;;
39918;SDS011;25589;51.552;13.424;2023-06-10T06:38:40;16.15;;;9.45;;
39918;SDS011;25589;51.552;13.424;2023-06-10T06:41:06;11.27;;;9.25;;
39918;SDS011;25589;51.552;13.424;2023-06-10T06:43:31;15.95;;;9.57;;
39918;SDS011;25589;51.552;13.424;2023-06-10T06:46:03;14.57;;;9.03;;
39918;SDS011;25589;51.552;13.424;2023-06-10T06:48:28;13.40;;;8.35;;
39918;SDS011;25589;51.552;13.424;2023-06-10T06:50:54;11.57;;;8.80;;
39918;SDS011;25589;51.552;13.424;2023-06-10T06:53:21;14.25;;;8.75;;
39918;SDS011;25589;51.552;13.424;2023-06-10T06:55:47;12.10;;;8.90;;
39918;SDS011;25589;51.552;13.424;2023-06-10T06:58:12;10.63;;;8.93;;
39918;SDS011;25589;51.552;13.424;2023-06-10T07:00:38;10.63;;;8.07;;
39918;SDS011;25589;51.552;13.424;2023-06-10T07:03:03;13.38;;;8.77;;
39918;SDS011;25589;51.552;13.424;2023-06-10T07:05:29;13.20;;;8.68;;
39918;SDS011;25589;51.552;13.424;2023-06-10T07:07:55;10.10;;;8.63;;
39918;SDS011;25589;51.552;13.424;2023-06-10T07:10:23;12.82;;;9.20;;
39918;SDS011;25589;51.552;13.424;2023-06-10T07:12:50;12.25;;;9.00;;
39918;SDS011;25589;51.552;13.424;2023-06-10T07:15:16;11.45;;;8.45;;
39918;SDS011;25589;51.552;13.424;2023-06-10T07:17:42;8.98;;;7.93;;
39918;SDS011;25589;51.552;13.424;2023-06-10T07:20:09;10.73;;;8.40;;
39918;SDS011;25589;51.552;13.424;2023-06-10T07:22:35;11.43;;;8.50;;
39918;SDS011;25589;51.552;13.424;2023-06-10T07:25:00;10.82;;;8.23;;
39918;SDS011;25589;51.552;13.424;2023-06-10T07:27:26;12.10;;;8.55;;
39918;SDS011;25589;51.552;13.424;2023-06-10T07:29:51;10.98;;;8.60;;
39918;SDS011;25589;51.552;13.424;2023-06-10T07:32:17;9.13;;;8.00;;
39918;SDS011;25589;51.552;13.424;2023-06-10T07:34:45;11.65;;;8.32;;
39918;SDS011;25589;51.552;13.424;2023-06-10T07:37:10;12.52;;;8.27;;
39918;SDS011;25589;51.552;13.424;2023-06-10T07:39:36;9.40;;;7.75;;
39918;SDS011;25589;51.552;13.424;2023-06-10T07:42:01;11.52;;;7.95;;
39918;SDS011;25589;51.552;13.424;2023-06-10T07:44:29;10.32;;;7.50;;
39918;SDS011;25589;51.552;13.424;2023-06-10T07:46:55;11.25;;;8.68;;
39918;SDS011;25589;51.552;13.424;2023-06-10T07:49:22;13.15;;;8.85;;
39918;SDS011;25589;51.552;13.424;2023-06-10T07:51:48;12.00;;;9.48;;
39918;SDS011;25589;51.552;13.424;2023-06-10T07:54:14;10.45;;;8.70;;
39918;SDS011;25589;51.552;13.424;2023-06-10T07:56:40;10.98;;;7.97;;
39918;SDS011;25589;51.552;13.424;2023-06-10T07:59:05;13.50;;;9.13;;
39918;SDS011;25589;51.552;13.424;2023-06-10T08:01:31;10.55;;;9.02;;
39918;SDS011;25589;51.552;13.424;2023-06-10T08:03:58;9.73;;;8.30;;
39918;SDS011;25589;51.552;13.424;2023-06-10T08:06:23;13.88;;;9.30;;
39918;SDS011;25589;51.552;13.424;2023-06-10T08:08:49;11.65;;;9.30;;
39918;SDS011;25589;51.552;13.424;2023-06-10T08:11:14;9.57;;;8.27;;
39918;SDS011;25589;51.552;13.424;2023-06-10T08:13:40;9.55;;;8.35;;
39918;SDS011;25589;51.552;13.424;2023-06-10T08:16:05;10.43;;;8.40;;
39918;SDS011;25589;51.552;13.424;2023-06-10T08:18:31;12.00;;;8.55;;
39918;SDS011;25589;51.552;13.424;2023-06-10T08:20:57;10.18;;;8.95;;
39918;SDS011;25589;51.552;13.424;2023-06-10T08:23:22;14.90;;;9.05;;
39918;SDS011;25589;51.552;13.424;2023-06-10T08:25:48;9.43;;;8.32;;
39918;SDS011;25589;51.552;13.424;2023-06-10T08:28:14;9.80;;;8.88;;
39918;SDS011;25589;51.552;13.424;2023-06-10T08:30:39;11.20;;;9.30;;
39918;SDS011;25589;51.552;13.424;2023-06-10T08:33:05;14.75;;;9.23;;
39918;SDS011;25589;51.552;13.424;2023-06-10T08:35:31;12.80;;;8.93;;
39918;SDS011;25589;51.552;13.424;2023-06-10T08:37:56;9.57;;;8.68;;
39918;SDS011;25589;51.552;13.424;2023-06-10T08:40:22;12.05;;;8.18;;
39918;SDS011;25589;51.552;13.424;2023-06-10T08:43:00;10.82;;;8.25;;
39918;SDS011;25589;51.552;13.424;2023-06-10T08:45:31;8.93;;;7.38;;
39918;SDS011;25589;51.552;13.424;2023-06-10T08:48:00;9.23;;;8.13;;
39918;SDS011;25589;51.552;13.424;2023-06-10T08:50:36;12.95;;;8.65;;
39918;SDS011;25589;51.552;13.424;2023-06-10T08:53:04;10.00;;;8.18;;
39918;SDS011;25589;51.552;13.424;2023-06-10T08:58:03;9.68;;;6.88;;
39918;SDS011;25589;51.552;13.424;2023-06-10T09:00:30;14.88;;;10.07;;
39918;SDS011;25589;51.552;13.424;2023-06-10T09:02:57;8.27;;;7.15;;
39918;SDS011;25589;51.552;13.424;2023-06-10T09:05:23;7.50;;;6.43;;
39918;SDS011;25589;51.552;13.424;2023-06-10T09:07:49;7.38;;;6.68;;
39918;SDS011;25589;51.552;13.424;2023-06-10T09:10:17;7.28;;;6.50;;
39918;SDS011;25589;51.552;13.424;2023-06-10T09:12:43;9.00;;;6.68;;
39918;SDS011;25589;51.552;13.424;2023-06-10T09:15:09;8.00;;;6.03;;
39918;SDS011;25589;51.552;13.424;2023-06-10T09:17:36;7.43;;;5.78;;
39918;SDS011;25589;51.552;13.424;2023-06-10T09:20:03;8.77;;;5.57;;
39918;SDS011;25589;51.552;13.424;2023-06-10T09:22:29;7.28;;;5.45;;
39918;SDS011;25589;51.552;13.424;2023-06-10T09:25:04;7.65;;;5.30;;
39918;SDS011;25589;51.552;13.424;2023-06-10T09:27:33;5.85;;;5.22;;
39918;SDS011;25589;51.552;13.424;2023-06-10T09:30:28;6.38;;;5.72;;
39918;SDS011;25589;51.552;13.424;2023-06-10T09:32:55;8.73;;;6.30;;
39918;SDS011;25589;51.552;13.424;2023-06-10T09:35:26;7.93;;;6.07;;
39918;SDS011;25589;51.552;13.424;2023-06-10T09:37:52;8.00;;;7.03;;
39918;SDS011;25589;51.552;13.424;2023-06-10T09:40:24;8.43;;;5.90;;
39918;SDS011;25589;51.552;13.424;2023-06-10T09:42:54;11.45;;;5.75;;
39918;SDS011;25589;51.552;13.424;2023-06-10T09:45:27;6.72;;;5.72;;
39918;SDS011;25589;51.552;13.424;2023-06-10T09:47:55;11.25;;;6.25;;
39918;SDS011;25589;51.552;13.424;2023-06-10T09:50:20;6.93;;;5.60;;
39918;SDS011;25589;51.552;13.424;2023-06-10T09:52:46;6.30;;;5.55;;
39918;SDS011;25589;51.552;13.424;2023-06-10T09:55:13;10.45;;;6.90;;
39918;SDS011;25589;51.552;13.424;2023-06-10T09:57:39;10.38;;;6.32;;
39918;SDS011;25589;51.552;13.424;2023-06-10T10:00:07;6.25;;;5.65;;
39918;SDS011;25589;51.552;13.424;2023-06-10T10:02:43;9.75;;;6.43;;
39918;SDS011;25589;51.552;13.424;2023-06-10T10:05:14;7.07;;;6.35;;
39918;SDS011;25589;51.552;13.424;2023-06-10T10:07:40;6.75;;;5.95;;
39918;SDS011;25589;51.552;13.424;2023-06-10T10:10:07;6.50;;;5.90;;
39918;SDS011;25589;51.552;13.424;2023-06-10T10:12:33;6.68;;;6.05;;
39918;SDS011;25589;51.552;13.424;2023-06-10T10:15:00;8.45;;;5.90;;
39918;SDS011;25589;51.552;13.424;2023-06-10T10:17:27;8.63;;;5.95;;
39918;SDS011;25589;51.552;13.424;2023-06-10T10:19:55;6.50;;;5.80;;
39918;SDS011;25589;51.552;13.424;2023-06-10T10:22:29;9.10;;;6.60;;
39918;SDS011;25589;51.552;13.424;2023-06-10T10:25:02;7.80;;;6.32;;
39918;SDS011;25589;51.552;13.424;2023-06-10T10:27:33;11.30;;;7.22;;
39918;SDS011;25589;51.552;13.424;2023-06-10T10:30:01;7.43;;;5.88;;
39918;SDS011;25589;51.552;13.424;2023-06-10T10:32:35;7.07;;;6.18;;
39918;SDS011;25589;51.552;13.424;2023-06-10T10:35:09;9.23;;;5.20;;
39918;SDS011;25589;51.552;13.424;2023-06-10T10:37:41;8.13;;;5.95;;
39918;SDS011;25589;51.552;13.424;2023-06-10T10:40:07;7.72;;;6.05;;
39918;SDS011;25589;51.552;13.424;2023-06-10T10:42:33;6.95;;;6.05;;
39918;SDS011;25589;51.552;13.424;2023-06-10T10:45:00;11.05;;;6.43;;
39918;SDS011;25589;51.552;13.424;2023-06-10T10:47:27;11.00;;;6.55;;
39918;SDS011;25589;51.552;13.424;2023-06-10T10:49:56;6.70;;;5.60;;
39918;SDS011;25589;51.552;13.424;2023-06-10T10:52:25;6.68;;;5.88;;
39918;SDS011;25589;51.552;13.424;2023-06-10T10:55:14;6.28;;;5.68;;
39918;SDS011;25589;51.552;13.424;2023-06-10T10:57:40;6.97;;;5.35;;
39918;SDS011;25589;51.552;13.424;2023-06-10T11:00:05;6.35;;;5.07;;
39918;SDS011;25589;51.552;13.424;2023-06-10T11:02:33;6.07;;;5.47;;
39918;SDS011;25589;51.552;13.424;2023-06-10T11:05:00;7.45;;;6.03;;
39918;SDS011;25589;51.552;13.424;2023-06-10T11:07:28;6.50;;;5.65;;
39918;SDS011;25589;51.552;13.424;2023-06-10T11:12:50;6.88;;;6.10;;
39918;SDS011;25589;51.552;13.424;2023-06-10T11:15:20;7.53;;;6.07;;
39918;SDS011;25589;51.552;13.424;2023-06-10T11:18:08;8.75;;;6.13;;
39918;SDS011;25589;51.552;13.424;2023-06-10T11:31:31;9.90;;;5.70;;
39918;SDS011;25589;51.552;13.424;2023-06-10T11:33:58;8.70;;;5.32;;
39918;SDS011;25589;51.552;13.424;2023-06-10T11:36:25;7.00;;;5.60;;
39918;SDS011;25589;51.552;13.424;2023-06-10T11:38:53;5.78;;;5.18;;
39918;SDS011;25589;51.552;13.424;2023-06-10T11:41:21;6.05;;;5.53;;
39918;SDS011;25589;51.552;13.424;2023-06-10T11:43:50;6.68;;;5.40;;
39918;SDS011;25589;51.552;13.424;2023-06-10T11:46:17;10.52;;;6.20;;
39918;SDS011;25589;51.552;13.424;2023-06-10T11:48:49;7.68;;;5.32;;
39918;SDS011;25589;51.552;13.424;2023-06-10T11:51:16;7.25;;;5.53;;
39918;SDS011;25589;51.552;13.424;2023-06-10T11:53:45;11.60;;;5.53;;
39918;SDS011;25589;51.552;13.424;2023-06-10T11:56:11;6.78;;;5.18;;
39918;SDS011;25589;51.552;13.424;2023-06-10T11:58:37;8.18;;;5.93;;
39918;SDS011;25589;51.552;13.424;2023-06-10T12:01:08;7.13;;;5.10;;
39918;SDS011;25589;51.552;13.424;2023-06-10T12:03:37;8.13;;;5.38;;
39918;SDS011;25589;51.552;13.424;2023-06-10T12:06:04;7.97;;;5.45;;
39918;SDS011;25589;51.552;13.424;2023-06-10T12:08:30;6.78;;;4.90;;
39918;SDS011;25589;51.552;13.424;2023-06-10T12:10:57;9.05;;;4.95;;
39918;SDS011;25589;51.552;13.424;2023-06-10T12:13:25;5.55;;;5.05;;
39918;SDS011;25589;51.552;13.424;2023-06-10T12:15:51;7.43;;;5.22;;
39918;SDS011;25589;51.552;13.424;2023-06-10T12:18:21;5.20;;;4.53;;
39918;SDS011;25589;51.552;13.424;2023-06-10T12:20:48;7.10;;;4.60;;
39918;SDS011;25589;51.552;13.424;2023-06-10T12:23:15;6.18;;;4.85;;
39918;SDS011;25589;51.552;13.424;2023-06-10T12:25:51;9.05;;;4.80;;
39918;SDS011;25589;51.552;13.424;2023-06-10T12:28:21;6.43;;;4.10;;
39918;SDS011;25589;51.552;13.424;2023-06-10T12:30:48;7.10;;;4.53;;
39918;SDS011;25589;51.552;13.424;2023-06-10T12:33:17;8.93;;;4.90;;
39918;SDS011;25589;51.552;13.424;2023-06-10T12:35:55;5.95;;;4.80;;
39918;SDS011;25589;51.552;13.424;2023-06-10T12:38:21;8.40;;;5.00;;
39918;SDS011;25589;51.552;13.424;2023-06-10T12:40:49;9.07;;;4.57;;
39918;SDS011;25589;51.552;13.424;2023-06-10T12:43:33;5.03;;;4.53;;
39918;SDS011;25589;51.552;13.424;2023-06-10T12:46:08;9.38;;;4.90;;
39918;SDS011;25589;51.552;13.424;2023-06-10T12:48:34;6.65;;;4.85;;
39918;SDS011;25589;51.552;13.424;2023-06-10T12:51:00;7.25;;;4.88;;
39918;SDS011;25589;51.552;13.424;2023-06-10T12:53:26;8.80;;;5.10;;
39918;SDS011;25589;51.552;13.424;2023-06-10T12:55:52;8.02;;;4.75;;
39918;SDS011;25589;51.552;13.424;2023-06-10T12:58:21;7.75;;;5.13;;
39918;SDS011;25589;51.552;13.424;2023-06-10T13:00:48;7.43;;;5.28;;
39918;SDS011;25589;51.552;13.424;2023-06-10T13:03:14;5.13;;;4.65;;
39918;SDS011;25589;51.552;13.424;2023-06-10T13:05:40;7.70;;;4.93;;
39918;SDS011;25589;51.552;13.424;2023-06-10T13:08:06;8.80;;;4.43;;
39918;SDS011;25589;51.552;13.424;2023-06-10T13:10:32;9.25;;;4.35;;
39918;SDS011;25589;51.552;13.424;2023-06-10T13:12:59;5.30;;;4.35;;
39918;SDS011;25589;51.552;13.424;2023-06-10T13:15:26;7.63;;;5.05;;
39918;SDS011;25589;51.552;13.424;2023-06-10T13:17:51;6.88;;;4.68;;
39918;SDS011;25589;51.552;13.424;2023-06-10T13:20:17;5.63;;;5.10;;
39918;SDS011;25589;51.552;13.424;2023-06-10T13:22:44;9.68;;;4.78;;
39918;SDS011;25589;51.552;13.424;2023-06-10T13:25:10;6.53;;;4.60;;
39918;SDS011;25589;51.552;13.424;2023-06-10T13:27:36;6.50;;;4.55;;
39918;SDS011;25589;51.552;13.424;2023-06-10T13:30:08;7.65;;;4.45;;
39918;SDS011;25589;51.552;13.424;2023-06-10T13:32:37;4.88;;;4.43;;
39918;SDS011;25589;51.552;13.424;2023-06-10T13:35:03;5.97;;;4.07;;
39918;SDS011;25589;51.552;13.424;2023-06-10T13:37:29;5.57;;;4.45;;
39918;SDS011;25589;51.552;13.424;2023-06-10T13:39:56;7.10;;;4.88;;
39918;SDS011;25589;51.552;13.424;2023-06-10T13:42:22;10.68;;;5.25;;
39918;SDS011;25589;51.552;13.424;2023-06-10T13:44:47;10.70;;;5.20;;
39918;SDS011;25589;51.552;13.424;2023-06-10T13:47:14;5.18;;;4.68;;
39918;SDS011;25589;51.552;13.424;2023-06-10T13:49:40;6.90;;;5.13;;
39918;SDS011;25589;51.552;13.424;2023-06-10T13:52:06;8.55;;;5.05;;
39918;SDS011;25589;51.552;13.424;2023-06-10T13:54:32;6.80;;;4.95;;
39918;SDS011;25589;51.552;13.424;2023-06-10T13:56:58;8.65;;;5.65;;
39918;SDS011;25589;51.552;13.424;2023-06-10T13:59:25;7.50;;;5.15;;
39918;SDS011;25589;51.552;13.424;2023-06-10T14:01:51;7.32;;;5.22;;
39918;SDS011;25589;51.552;13.424;2023-06-10T14:04:16;8.13;;;4.43;;
39918;SDS011;25589;51.552;13.424;2023-06-10T14:06:42;5.35;;;4.45;;
39918;SDS011;25589;51.552;13.424;2023-06-10T14:09:07;5.32;;;4.57;;
39918;SDS011;25589;51.552;13.424;2023-06-10T14:11:33;4.93;;;4.50;;
39918;SDS011;25589;51.552;13.424;2023-06-10T14:13:58;7.43;;;5.10;;
39918;SDS011;25589;51.552;13.424;2023-06-10T14:16:25;5.40;;;4.03;;
39918;SDS011;25589;51.552;13.424;2023-06-10T14:18:51;5.45;;;4.13;;
39918;SDS011;25589;51.552;13.424;2023-06-10T14:21:17;9.52;;;5.00;;
39918;SDS011;25589;51.552;13.424;2023-06-10T14:23:42;10.45;;;4.68;;
39918;SDS011;25589;51.552;13.424;2023-06-10T14:26:08;8.68;;;4.40;;
39918;SDS011;25589;51.552;13.424;2023-06-10T14:28:35;9.73;;;5.20;;
39918;SDS011;25589;51.552;13.424;2023-06-10T14:31:00;4.85;;;4.35;;
39918;SDS011;25589;51.552;13.424;2023-06-10T14:33:26;6.95;;;4.90;;
39918;SDS011;25589;51.552;13.424;2023-06-10T14:35:51;7.45;;;4.85;;
39918;SDS011;25589;51.552;13.424;2023-06-10T14:38:17;4.88;;;4.10;;
39918;SDS011;25589;51.552;13.424;2023-06-10T14:40:43;7.85;;;4.65;;
39918;SDS011;25589;51.552;13.424;2023-06-10T14:43:08;5.65;;;4.38;;
39918;SDS011;25589;51.552;13.424;2023-06-10T14:45:44;6.50;;;4.53;;